Time;durP1;ratioP1;P1;durP2;ratioP2;P2;SDS_P1;SDS_P2;PMS_P1;PMS_P2;Temp;Humidity;BMP_temperature;BMP_pressure;BME280_temperature;BME280_humidity;BME280_pressure;Samples;Min_cycle;Max_cycle;Signal;HPM_P1;HPM_P2
2023/05/07 00:02:48;;;;;;;11.13;6.15;;;;;;;10.80;100.00;101686.81;6277383;28;20053;-78
2023/05/07 00:05:50;;;;;;;12.80;6.50;;;;;;;10.91;100.00;101687.28;6277427;28;20068;-78
2023/05/07 00:08:51;;;;;;;13.68;6.97;;;;;;;10.95;100.00;101681.91;6275327;28;20049;-77
2023/05/07 00:11:52;;;;;;;13.40;7.35;;;;;;;10.81;100.00;101690.31;6277174;28;20053;-78
2023/05/07 00:14:55;;;;;;;16.83;6.60;;;;;;;10.82;100.00;101685.00;6277180;28;20061;-78
2023/05/07 00:17:57;;;;;;;18.48;6.93;;;;;;;10.88;100.00;101684.75;6276737;28;20051;-78
2023/05/07 00:20:58;;;;;;;13.15;6.57;;;;;;;10.97;100.00;101687.94;6274001;28;20142;-78
2023/05/07 00:24:00;;;;;;;15.80;6.70;;;;;;;10.91;100.00;101692.53;6277093;28;20052;-78
2023/05/07 00:27:01;;;;;;;13.95;6.55;;;;;;;10.94;100.00;101688.91;6276540;28;20049;-78
2023/05/07 00:30:05;;;;;;;11.52;6.53;;;;;;;10.94;100.00;101691.53;6276456;28;20045;-78
2023/05/07 00:33:06;;;;;;;14.70;6.95;;;;;;;10.80;100.00;101692.09;6276549;28;20056;-78
2023/05/07 00:36:08;;;;;;;19.63;7.78;;;;;;;10.70;100.00;101684.63;6276403;28;20144;-78
2023/05/07 00:39:09;;;;;;;12.95;7.07;;;;;;;10.68;100.00;101683.84;6275659;28;20056;-78
2023/05/07 00:42:10;;;;;;;14.75;7.30;;;;;;;10.73;100.00;101687.16;6276398;28;20053;-78
2023/05/07 00:45:13;;;;;;;15.43;7.32;;;;;;;10.62;100.00;101677.03;6276512;28;20075;-78
2023/05/07 00:48:15;;;;;;;13.38;6.72;;;;;;;10.58;100.00;101678.94;6276058;28;20052;-78
2023/05/07 00:51:17;;;;;;;18.05;7.88;;;;;;;10.60;100.00;101678.88;6276453;28;20041;-78
2023/05/07 00:54:19;;;;;;;11.68;6.93;;;;;;;10.66;100.00;101678.63;6276039;28;20049;-78
2023/05/07 00:57:22;;;;;;;16.65;7.65;;;;;;;10.74;100.00;101675.72;6275864;28;20041;-78
2023/05/07 01:00:25;;;;;;;13.75;6.90;;;;;;;10.63;100.00;101677.00;6275867;28;20045;-78
2023/05/07 01:03:26;;;;;;;12.13;6.53;;;;;;;10.54;100.00;101671.22;6276058;28;20045;-78
2023/05/07 01:06:30;;;;;;;13.32;6.72;;;;;;;10.58;100.00;101681.56;6275999;28;20053;-77
2023/05/07 01:09:32;;;;;;;14.40;7.38;;;;;;;10.56;100.00;101686.00;6275533;28;20052;-78
2023/05/07 01:12:34;;;;;;;12.75;6.80;;;;;;;10.68;100.00;101683.84;6273171;28;20041;-78
2023/05/07 01:15:37;;;;;;;14.18;7.53;;;;;;;10.53;100.00;101688.75;6275699;28;20060;-78
2023/05/07 01:18:39;;;;;;;15.30;7.63;;;;;;;10.47;100.00;101672.38;6275473;28;20068;-78
2023/05/07 01:21:47;;;;;;;16.60;7.07;;;;;;;10.45;100.00;101679.47;6275796;28;20060;-78
2023/05/07 01:24:50;;;;;;;12.18;7.35;;;;;;;10.33;100.00;101683.41;6275495;28;20378;-79
2023/05/07 01:27:51;;;;;;;14.98;7.40;;;;;;;10.46;100.00;101684.66;6274863;28;20041;-78
2023/05/07 01:30:59;;;;;;;15.93;8.00;;;;;;;10.53;100.00;101680.00;6275602;28;20060;-79
2023/05/07 01:34:01;;;;;;;14.75;7.68;;;;;;;10.49;100.00;101683.66;6275367;28;20056;-78
2023/05/07 01:37:03;;;;;;;14.35;7.53;;;;;;;10.50;100.00;101672.25;6275303;28;20044;-78
2023/05/07 01:40:08;;;;;;;15.50;6.97;;;;;;;10.55;100.00;101670.31;6274970;28;20387;-78
2023/05/07 01:43:11;;;;;;;17.05;7.25;;;;;;;10.40;100.00;101677.88;6274790;28;20349;-78
2023/05/07 01:46:13;;;;;;;12.40;7.07;;;;;;;10.37;100.00;101688.47;6275124;28;20064;-78
2023/05/07 01:49:15;;;;;;;13.30;7.00;;;;;;;10.38;100.00;101686.72;6274827;28;20045;-78
2023/05/07 01:52:16;;;;;;;14.65;7.07;;;;;;;10.41;100.00;101686.59;6275232;28;20122;-78
2023/05/07 01:55:19;;;;;;;15.35;8.10;;;;;;;10.41;100.00;101683.97;6274862;28;20053;-78
2023/05/07 01:58:20;;;;;;;14.55;6.93;;;;;;;10.46;100.00;101695.16;6274425;28;20052;-79
2023/05/07 02:01:22;;;;;;;15.93;7.82;;;;;;;10.46;100.00;101689.06;6274963;28;20041;-78
2023/05/07 02:04:24;;;;;;;14.32;8.02;;;;;;;10.32;100.00;101689.56;6275103;28;20072;-78
2023/05/07 02:07:25;;;;;;;14.85;7.13;;;;;;;10.40;100.00;101693.63;6274582;28;20048;-78
2023/05/07 02:10:28;;;;;;;12.85;7.28;;;;;;;10.32;100.00;101690.44;6274975;28;20048;-78
2023/05/07 02:13:34;;;;;;;13.18;6.80;;;;;;;10.33;100.00;101689.50;6274711;28;20053;-79
2023/05/07 02:16:35;;;;;;;15.52;7.68;;;;;;;10.33;100.00;101692.13;6274885;28;20044;-78
2023/05/07 02:19:36;;;;;;;14.43;7.15;;;;;;;10.34;100.00;101688.59;6274536;28;20128;-78
2023/05/07 02:22:38;;;;;;;15.82;7.15;;;;;;;10.36;100.00;101699.06;6266390;28;20339;-78
2023/05/07 02:25:41;;;;;;;14.45;7.47;;;;;;;10.20;100.00;101695.22;6272653;28;20052;-78
2023/05/07 02:28:42;;;;;;;14.70;7.13;;;;;;;10.20;100.00;101703.97;6272352;28;20426;-78
2023/05/07 02:31:43;;;;;;;17.90;7.78;;;;;;;10.33;100.00;101702.63;6271709;28;20045;-78
2023/05/07 02:34:45;;;;;;;17.30;7.45;;;;;;;10.34;100.00;101706.97;6274396;28;20397;-78
2023/05/07 02:37:46;;;;;;;16.63;7.40;;;;;;;10.38;100.00;101699.84;6274235;28;20132;-78
2023/05/07 02:40:49;;;;;;;14.38;7.10;;;;;;;10.24;100.00;101694.22;6274615;28;20053;-77
2023/05/07 02:43:50;;;;;;;14.77;7.65;;;;;;;10.22;100.00;101691.66;6274603;28;20056;-78
2023/05/07 02:46:51;;;;;;;15.23;7.63;;;;;;;10.19;100.00;101693.53;6274599;28;20049;-78
2023/05/07 02:49:53;;;;;;;20.23;7.32;;;;;;;10.16;100.00;101695.34;6266192;28;20562;-78
2023/05/07 02:52:54;;;;;;;12.73;6.47;;;;;;;10.23;100.00;101692.50;6273889;28;20349;-78
2023/05/07 02:55:58;;;;;;;15.68;7.07;;;;;;;10.28;100.00;101693.22;6274485;28;20044;-78
2023/05/07 02:58:59;;;;;;;17.80;7.15;;;;;;;10.28;100.00;101701.09;6274084;28;20377;-78
2023/05/07 03:02:01;;;;;;;16.33;7.25;;;;;;;10.34;100.00;101698.25;6277059;28;20045;-78
2023/05/07 03:05:03;;;;;;;15.82;7.72;;;;;;;10.26;100.00;101705.53;6278751;28;20056;-78
2023/05/07 03:08:05;;;;;;;13.82;6.93;;;;;;;10.37;100.00;101703.41;6278355;28;20128;-78
2023/05/07 03:11:08;;;;;;;18.20;7.65;;;;;;;10.31;100.00;101707.13;6278769;28;20052;-78
2023/05/07 03:14:09;;;;;;;19.48;7.90;;;;;;;10.28;100.00;101696.72;6278770;28;20057;-78
2023/05/07 03:17:10;;;;;;;19.55;8.55;;;;;;;10.25;100.00;101695.94;6278580;28;20122;-78
2023/05/07 03:20:13;;;;;;;20.25;9.40;;;;;;;10.21;100.00;101699.56;6278065;28;20053;-78
2023/05/07 03:23:14;;;;;;;21.73;8.50;;;;;;;10.20;100.00;101695.22;6267179;28;20045;-79
2023/05/07 03:26:17;;;;;;;16.05;8.02;;;;;;;10.09;100.00;101690.38;6258569;28;20041;-79
2023/05/07 03:29:18;;;;;;;19.77;8.60;;;;;;;10.05;100.00;101696.66;6259881;28;20040;-79
2023/05/07 03:32:19;;;;;;;21.77;9.57;;;;;;;10.19;100.00;101694.38;6262581;28;20571;-79
2023/05/07 03:35:21;;;;;;;19.67;8.55;;;;;;;10.19;100.00;101686.50;6261895;28;20037;-79
2023/05/07 03:38:22;;;;;;;20.02;9.77;;;;;;;10.05;100.00;101679.13;6258948;28;20484;-79
2023/05/07 03:41:25;;;;;;;20.40;9.57;;;;;;;10.09;100.00;101679.88;6259480;28;20037;-78
2023/05/07 03:44:27;;;;;;;19.92;8.57;;;;;;;10.05;100.00;101681.75;6258395;28;20048;-79
2023/05/07 03:47:28;;;;;;;21.38;8.20;;;;;;;10.00;100.00;101677.59;6260279;28;20049;-79
2023/05/07 03:50:29;;;;;;;14.65;7.43;;;;;;;10.06;100.00;101682.59;6261761;28;20048;-79
2023/05/07 03:53:31;;;;;;;17.40;8.13;;;;;;;10.05;100.00;101684.38;6264072;28;20055;-78
2023/05/07 03:56:33;;;;;;;18.70;8.13;;;;;;;10.06;100.00;101680.84;6260582;28;20053;-79
2023/05/07 03:59:35;;;;;;;12.80;6.65;;;;;;;10.20;100.00;101687.34;6260549;28;20047;-79
2023/05/07 04:02:36;;;;;;;13.85;7.10;;;;;;;10.14;100.00;101685.81;6260778;28;20076;-79
2023/05/07 04:05:37;;;;;;;17.80;7.63;;;;;;;10.14;100.00;101689.28;6261146;28;20580;-79
2023/05/07 04:08:39;;;;;;;13.18;6.72;;;;;;;10.19;100.00;101696.16;6261214;28;20044;-78
2023/05/07 04:11:42;;;;;;;20.90;7.10;;;;;;;10.11;100.00;101689.41;6256532;28;20049;-79
2023/05/07 04:14:43;;;;;;;14.93;7.03;;;;;;;10.11;100.00;101704.31;6258981;28;20120;-79
2023/05/07 04:17:44;;;;;;;14.00;7.07;;;;;;;10.06;100.00;101709.72;6262224;28;20660;-79
2023/05/07 04:20:46;;;;;;;14.18;6.43;;;;;;;10.08;100.00;101707.03;6259940;28;20045;-79
2023/05/07 04:23:47;;;;;;;12.65;6.35;;;;;;;10.07;100.00;101721.94;6275355;28;20055;-78
2023/05/07 04:26:51;;;;;;;14.57;6.40;;;;;;;9.96;100.00;101708.34;6276728;28;20052;-79
2023/05/07 04:29:55;;;;;;;12.60;5.93;;;;;;;10.05;100.00;101717.66;6273120;28;20045;-78
2023/05/07 04:32:56;;;;;;;15.13;6.30;;;;;;;10.03;100.00;101711.59;6269081;28;20053;-78
2023/05/07 04:36:02;;;;;;;11.75;5.80;;;;;;;10.05;100.00;101715.03;6276519;28;20060;-78
2023/05/07 04:39:03;;;;;;;11.68;5.22;;;;;;;10.09;100.00;101722.75;6276010;28;20173;-79
2023/05/07 04:42:08;;;;;;;10.30;5.40;;;;;;;10.10;100.00;101715.72;6276512;28;20049;-78
2023/05/07 04:45:12;;;;;;;11.13;5.35;;;;;;;10.07;100.00;101721.94;6276492;28;20056;-78
2023/05/07 04:48:14;;;;;;;10.40;5.30;;;;;;;10.11;100.00;101726.16;6276481;28;20122;-79
2023/05/07 04:51:16;;;;;;;11.07;6.45;;;;;;;10.04;100.00;101729.09;6276348;28;20143;-78
2023/05/07 04:54:17;;;;;;;15.52;7.22;;;;;;;9.97;100.00;101715.31;6276517;28;20052;-78
2023/05/07 04:57:20;;;;;;;12.55;6.10;;;;;;;9.91;100.00;101711.13;6276224;28;20556;-78
2023/05/07 05:00:21;;;;;;;9.25;5.10;;;;;;;9.90;100.00;101726.91;6273654;28;20049;-78
2023/05/07 05:03:22;;;;;;;12.15;5.82;;;;;;;9.91;100.00;101733.91;6275339;28;20064;-78
2023/05/07 05:06:24;;;;;;;11.18;5.28;;;;;;;9.87;100.00;101735.78;6275849;28;20056;-78
2023/05/07 05:09:25;;;;;;;11.73;5.88;;;;;;;9.87;100.00;101742.78;6275935;28;20041;-79
2023/05/07 05:12:28;;;;;;;13.23;6.13;;;;;;;9.93;100.00;101745.19;6275758;28;20186;-78
2023/05/07 05:15:29;;;;;;;9.75;4.95;;;;;;;9.99;100.00;101744.13;6275783;28;20044;-78
2023/05/07 05:18:31;;;;;;;10.07;4.85;;;;;;;10.00;100.00;101751.97;6275466;28;20045;-79
2023/05/07 05:21:32;;;;;;;13.18;5.80;;;;;;;9.97;100.00;101740.72;6275850;28;20048;-78
2023/05/07 05:24:34;;;;;;;9.27;5.32;;;;;;;9.99;100.00;101745.00;6275441;28;20047;-78
2023/05/07 05:27:36;;;;;;;7.90;4.88;;;;;;;9.93;100.00;101749.59;6275276;28;20051;-79
2023/05/07 05:30:37;;;;;;;10.68;5.72;;;;;;;9.95;100.00;101759.16;6275531;28;20041;-78
2023/05/07 05:33:39;;;;;;;9.75;4.82;;;;;;;9.98;100.00;101755.53;6275411;28;20045;-79
2023/05/07 05:36:41;;;;;;;11.38;4.78;;;;;;;9.98;100.00;101752.91;6275470;28;20059;-78
2023/05/07 05:39:42;;;;;;;8.95;4.72;;;;;;;9.97;100.00;101757.31;6273775;28;20051;-78
2023/05/07 05:42:45;;;;;;;8.50;4.47;;;;;;;9.84;100.00;101756.88;6274247;28;20045;-78
2023/05/07 05:45:46;;;;;;;11.07;5.03;;;;;;;9.86;100.00;101759.47;6275247;28;20057;-78
2023/05/07 05:48:48;;;;;;;13.48;6.20;;;;;;;9.81;100.00;101756.13;6275194;28;20052;-79
2023/05/07 05:51:49;;;;;;;10.18;5.53;;;;;;;9.79;100.00;101763.19;6274925;28;20059;-78
2023/05/07 05:54:50;;;;;;;12.45;5.50;;;;;;;9.91;100.00;101768.91;6275413;28;20079;-78
2023/05/07 05:57:53;;;;;;;10.10;5.25;;;;;;;9.88;100.00;101755.00;6274831;28;20045;-78
2023/05/07 06:00:54;;;;;;;10.00;5.10;;;;;;;9.91;100.00;101765.41;6275330;28;20071;-78
2023/05/07 06:03:56;;;;;;;11.98;4.72;;;;;;;9.98;100.00;101755.53;6275080;28;20494;-78
2023/05/07 06:06:58;;;;;;;8.38;4.75;;;;;;;10.00;100.00;101751.97;6274818;28;20457;-78
2023/05/07 06:09:59;;;;;;;10.23;4.97;;;;;;;9.93;100.00;101755.69;6274707;28;20045;-78
2023/05/07 06:13:02;;;;;;;8.85;4.63;;;;;;;9.96;100.00;101758.22;6274855;28;20056;-78
2023/05/07 06:16:04;;;;;;;11.63;5.80;;;;;;;10.01;100.00;101763.31;6274946;28;20056;-79
2023/05/07 06:19:05;;;;;;;10.85;5.72;;;;;;;10.02;100.00;101768.50;6274168;28;20049;-79
2023/05/07 06:22:06;;;;;;;12.60;5.60;;;;;;;9.94;100.00;101753.94;6273657;28;20049;-78
2023/05/07 06:25:09;;;;;;;8.73;4.95;;;;;;;9.95;100.00;101748.66;6273408;28;20072;-78
2023/05/07 06:28:11;;;;;;;10.93;6.05;;;;;;;9.99;100.00;101750.25;6274495;28;20060;-78
2023/05/07 06:31:14;;;;;;;8.52;5.20;;;;;;;10.01;100.00;101761.56;6274840;28;20053;-79
2023/05/07 06:34:15;;;;;;;12.30;5.97;;;;;;;9.90;100.00;101755.78;6274948;28;20052;-78
2023/05/07 06:37:17;;;;;;;10.15;5.20;;;;;;;9.94;100.00;101759.19;6277770;28;20041;-78
2023/05/07 06:40:18;;;;;;;9.70;5.47;;;;;;;9.98;100.00;101758.16;6279089;28;20448;-78
2023/05/07 06:43:21;;;;;;;9.27;5.25;;;;;;;10.01;100.00;101765.94;6279327;28;20044;-78
2023/05/07 06:46:22;;;;;;;7.95;4.72;;;;;;;10.01;100.00;101772.06;6276702;28;20048;-78
2023/05/07 06:49:23;;;;;;;11.65;5.10;;;;;;;10.01;100.00;101769.44;6276249;28;20041;-78
2023/05/07 06:52:25;;;;;;;10.52;5.05;;;;;;;10.10;100.00;101784.03;6275289;28;20349;-79
2023/05/07 06:55:26;;;;;;;11.52;5.30;;;;;;;10.11;100.00;101786.56;6279195;28;20048;-78
2023/05/07 06:58:29;;;;;;;11.20;4.93;;;;;;;10.19;100.00;101783.69;6278753;28;20052;-80
2023/05/07 07:01:30;;;;;;;8.07;4.60;;;;;;;10.25;100.00;101785.28;6279178;28;20052;-79
2023/05/07 07:04:31;;;;;;;10.75;5.40;;;;;;;10.30;100.00;101783.34;6278937;28;20060;-80
2023/05/07 07:07:33;;;;;;;8.38;4.90;;;;;;;10.26;100.00;101790.47;6278855;28;20044;-78
2023/05/07 07:10:34;;;;;;;6.68;4.50;;;;;;;10.33;100.00;101785.88;6269430;28;20056;-75
2023/05/07 07:13:37;;;;;;;7.90;4.40;;;;;;;10.27;100.00;101788.72;6269542;28;20132;-79
2023/05/07 07:16:38;;;;;;;5.85;3.95;;;;;;;10.31;100.00;101800.81;6278065;28;20045;-78
2023/05/07 07:19:39;;;;;;;7.95;4.85;;;;;;;10.40;100.00;101803.09;6276925;28;20502;-79
2023/05/07 07:22:41;;;;;;;6.43;3.75;;;;;;;10.28;100.00;101800.94;6278648;28;20052;-79
2023/05/07 07:25:42;;;;;;;8.30;4.93;;;;;;;10.28;100.00;101799.16;6278296;28;20057;-79
2023/05/07 07:28:46;;;;;;;7.20;4.00;;;;;;;10.37;100.00;101803.25;6278382;28;20049;-79
2023/05/07 07:31:49;;;;;;;7.95;4.55;;;;;;;10.51;100.00;101797.50;6278241;28;20045;-78
2023/05/07 07:34:50;;;;;;;6.88;4.47;;;;;;;10.73;100.00;101805.47;6278273;28;20396;-79
2023/05/07 07:37:51;;;;;;;7.22;4.57;;;;;;;10.64;100.00;101804.88;6277763;28;20049;-78
2023/05/07 07:40:53;;;;;;;5.50;3.92;;;;;;;10.73;100.00;101797.56;6277983;28;20076;-79
2023/05/07 07:43:55;;;;;;;9.52;4.25;;;;;;;10.83;100.00;101799.78;6278145;28;20053;-78
2023/05/07 07:46:56;;;;;;;6.95;3.90;;;;;;;10.84;100.00;101812.00;6277690;28;20061;-79
2023/05/07 07:49:58;;;;;;;7.57;4.50;;;;;;;10.85;100.00;101802.34;6277790;28;20056;-78
2023/05/07 07:53:00;;;;;;;14.68;4.80;;;;;;;10.78;100.00;101804.38;6277878;28;20045;-79
2023/05/07 07:56:01;;;;;;;5.47;3.70;;;;;;;10.90;100.00;101797.78;6277940;28;20196;-79
2023/05/07 07:59:04;;;;;;;10.77;3.95;;;;;;;10.98;100.00;101798.34;6277391;28;20049;-78
2023/05/07 08:02:05;;;;;;;6.28;3.70;;;;;;;11.01;100.00;101794.75;6277679;28;20064;-78
2023/05/07 08:05:07;;;;;;;7.30;4.07;;;;;;;11.06;100.00;101804.16;6277794;28;20053;-79
2023/05/07 08:08:09;;;;;;;8.40;4.47;;;;;;;11.13;100.00;101810.06;6277483;28;20056;-78
2023/05/07 08:11:10;;;;;;;6.00;3.80;;;;;;;11.19;100.00;101809.81;6277593;28;20052;-79
2023/05/07 08:14:15;;;;;;;6.03;4.00;;;;;;;11.27;100.00;101805.13;6277237;28;20049;-78
2023/05/07 08:17:16;;;;;;;7.18;3.78;;;;;;;11.25;100.00;101798.19;6277308;28;20080;-78
2023/05/07 08:20:18;;;;;;;5.40;3.58;;;;;;;11.40;100.00;101805.50;6276975;28;20071;-78
2023/05/07 08:23:19;;;;;;;6.80;4.10;;;;;;;11.39;100.00;101801.13;6277290;28;20048;-78
2023/05/07 08:26:21;;;;;;;8.02;4.20;;;;;;;11.43;100.00;101808.00;6276936;28;20041;-78
2023/05/07 08:29:23;;;;;;;8.02;4.32;;;;;;;11.43;100.00;101800.09;6276649;28;20047;-78
2023/05/07 08:32:25;;;;;;;9.30;4.25;;;;;;;11.38;100.00;101809.97;6276905;28;20448;-78
2023/05/07 08:35:26;;;;;;;6.55;4.25;;;;;;;11.33;100.00;101812.78;6276930;28;20052;-78
2023/05/07 08:38:28;;;;;;;7.30;4.63;;;;;;;11.38;100.00;101810.81;6276568;28;20444;-78
2023/05/07 08:41:30;;;;;;;6.88;4.57;;;;;;;11.38;100.00;101804.69;6276851;28;20041;-78
2023/05/07 08:44:34;;;;;;;6.00;3.95;;;;;;;11.38;100.00;101807.31;6276566;28;20044;-78
2023/05/07 08:47:44;;;;;;;9.57;5.07;;;;;;;11.41;100.00;101812.47;6276283;28;20504;-78
2023/05/07 08:50:46;;;;;;;8.15;4.18;;;;;;;11.55;100.00;101823.31;6276512;28;20056;-78
2023/05/07 08:53:49;;;;;;;7.70;4.88;;;;;;;11.53;100.00;101830.38;6276106;28;20045;-78
2023/05/07 08:56:51;;;;;;;8.68;5.15;;;;;;;11.56;100.00;101819.75;6276242;28;20081;-78
2023/05/07 08:59:53;;;;;;;10.73;5.75;;;;;;;11.56;100.00;101825.00;6275318;28;20045;-78
2023/05/07 09:02:55;;;;;;;9.57;5.57;;;;;;;11.61;100.00;101824.81;6268405;28;20049;-78
2023/05/07 09:05:56;;;;;;;11.23;6.22;;;;;;;11.65;100.00;101829.06;6275921;28;20072;-79
2023/05/07 09:08:58;;;;;;;8.90;4.72;;;;;;;11.71;100.00;101830.56;6275962;28;20056;-78
2023/05/07 09:11:59;;;;;;;8.90;5.55;;;;;;;11.71;100.00;101827.94;6275876;28;20048;-78
2023/05/07 09:15:02;;;;;;;8.38;5.00;;;;;;;11.71;100.00;101823.53;6276040;28;20048;-78
2023/05/07 09:18:04;;;;;;;9.68;5.88;;;;;;;11.68;100.00;101827.16;6275474;28;20056;-78
2023/05/07 09:21:05;;;;;;;8.40;4.57;;;;;;;11.66;100.00;101831.63;6275662;28;20053;-78
2023/05/07 09:24:07;;;;;;;11.75;5.57;;;;;;;11.65;100.00;101837.81;6275704;28;20048;-78
2023/05/07 09:27:10;;;;;;;8.90;5.40;;;;;;;11.57;100.00;101836.41;6275507;28;20063;-79
2023/05/07 09:30:13;;;;;;;10.77;5.80;;;;;;;11.55;100.00;101839.09;6275399;28;20129;-79
2023/05/07 09:33:15;;;;;;;10.60;5.63;;;;;;;11.54;100.00;101834.75;6275507;28;20049;-78
2023/05/07 09:36:16;;;;;;;9.60;5.47;;;;;;;11.63;100.00;101837.03;6275317;28;20388;-78
2023/05/07 09:39:18;;;;;;;8.25;5.00;;;;;;;11.59;100.00;101837.22;6275107;28;20052;-79
2023/05/07 09:42:24;;;;;;;10.93;5.78;;;;;;;11.58;100.00;101846.88;6275326;28;20071;-81
2023/05/07 09:45:27;;;;;;;8.18;4.93;;;;;;;11.54;100.00;101839.19;6274949;28;20044;-79
2023/05/07 09:48:30;;;;;;;9.35;5.18;;;;;;;11.58;100.00;101833.72;6274968;28;20072;-78
2023/05/07 09:51:39;;;;;;;9.23;4.80;;;;;;;11.66;100.00;101838.66;6275249;28;20041;-79
2023/05/07 09:54:42;;;;;;;7.68;4.95;;;;;;;11.75;100.00;101830.38;6275450;28;20052;-79
2023/05/07 09:57:45;;;;;;;9.13;5.63;;;;;;;11.76;100.00;101825.97;6274786;28;20442;-78
2023/05/07 10:00:50;;;;;;;8.77;4.88;;;;;;;11.78;100.00;101830.28;6275128;28;20048;-78
2023/05/07 10:03:53;;;;;;;9.27;4.65;;;;;;;11.73;100.00;101826.97;6275022;28;20049;-79
2023/05/07 10:06:55;;;;;;;7.80;4.68;;;;;;;11.73;100.00;101820.84;6275123;28;20049;-79
2023/05/07 10:09:58;;;;;;;7.75;5.30;;;;;;;11.75;100.00;101824.28;6274534;28;20456;-79
2023/05/07 10:13:01;;;;;;;7.65;4.82;;;;;;;11.77;100.00;101828.56;6279595;28;20045;-79
2023/05/07 10:16:04;;;;;;;7.10;4.15;;;;;;;11.86;100.00;101836.13;6280161;28;20054;-80
2023/05/07 10:19:09;;;;;;;9.65;4.90;;;;;;;11.96;100.00;101833.97;6279598;28;20060;-78
2023/05/07 10:22:11;;;;;;;8.15;4.65;;;;;;;12.04;100.00;101823.97;6280081;28;20053;-79
2023/05/07 10:25:17;;;;;;;6.93;4.30;;;;;;;12.05;100.00;101825.66;6279719;28;20346;-78
2023/05/07 10:28:22;;;;;;;6.80;4.43;;;;;;;12.05;100.00;101825.66;6279728;28;20045;-78
2023/05/07 10:31:47;;;;;;;6.88;4.05;;;;;;;12.15;100.00;101834.88;6279687;28;20071;-79
2023/05/07 10:34:54;;;;;;;9.20;4.90;;;;;;;12.16;100.00;101841.00;6279835;28;20445;-78
2023/05/07 10:37:55;;;;;;;8.05;4.60;;;;;;;12.15;100.00;101837.53;6278951;28;20056;-78
2023/05/07 10:40:57;;;;;;;7.43;4.32;;;;;;;12.26;100.00;101830.94;6279622;28;20048;-79
2023/05/07 10:44:01;;;;;;;7.07;4.05;;;;;;;12.39;100.00;101840.03;6279381;28;20053;-79
2023/05/07 10:47:09;;;;;;;8.55;4.35;;;;;;;12.46;100.00;101838.00;6279422;28;20045;-78
2023/05/07 10:50:23;;;;;;;9.05;4.80;;;;;;;12.52;100.00;101843.84;6279082;28;20068;-79
2023/05/07 10:53:28;;;;;;;8.20;4.53;;;;;;;12.59;100.00;101834.75;6279342;28;20051;-79
2023/05/07 10:56:30;;;;;;;6.88;4.43;;;;;;;12.63;100.00;101849.53;6279023;28;20041;-79
2023/05/07 10:59:40;;;;;;;7.57;4.78;;;;;;;12.70;100.00;101847.44;6278946;28;20049;-79
2023/05/07 11:03:07;;;;;;;6.53;4.38;;;;;;;12.80;100.00;101839.97;6278846;28;20063;-78
2023/05/07 11:06:11;;;;;;;8.35;5.28;;;;;;;12.80;100.00;101837.34;6278538;28;20076;-79
2023/05/07 11:09:12;;;;;;;7.50;3.88;;;;;;;12.68;100.00;101834.34;6278630;28;20558;-78
2023/05/07 11:12:13;;;;;;;7.28;4.20;;;;;;;12.65;100.00;101846.81;6278787;28;20045;-79
2023/05/07 11:15:16;;;;;;;9.98;3.75;;;;;;;12.69;100.00;101845.75;6278586;28;20048;-78
2023/05/07 11:18:19;;;;;;;9.98;4.95;;;;;;;12.76;100.00;101847.16;6278565;28;20459;-79
2023/05/07 11:21:35;;;;;;;5.60;3.45;;;;;;;12.80;100.00;101839.97;6278299;28;20179;-79
2023/05/07 11:24:40;;;;;;;5.57;3.95;;;;;;;12.97;100.00;101847.13;6278652;28;20059;-79
2023/05/07 11:27:42;;;;;;;8.23;5.05;;;;;;;13.06;100.00;101850.22;6277791;28;20380;-79
2023/05/07 11:30:44;;;;;;;6.88;4.75;;;;;;;13.24;100.00;101852.97;6278546;28;20114;-79
2023/05/07 11:33:47;;;;;;;11.25;6.18;;;;;;;13.23;100.00;101845.97;6278287;28;20449;-79
2023/05/07 11:36:49;;;;;;;8.85;5.35;;;;;;;13.40;100.00;101848.69;6278306;28;20052;-79
2023/05/07 11:39:54;;;;;;;8.77;5.63;;;;;;;13.46;100.00;101853.66;6277872;28;20045;-79
2023/05/07 11:42:55;;;;;;;10.10;5.60;;;;;;;13.39;100.00;101853.06;6278173;28;20136;-78
2023/05/07 11:46:06;;;;;;;9.60;5.55;;;;;;;13.35;100.00;101855.94;6277924;28;20049;-78
2023/05/07 11:49:09;;;;;;;9.13;5.70;;;;;;;13.41;100.00;101855.66;6277972;28;20052;-78
2023/05/07 11:52:11;;;;;;;9.02;5.38;;;;;;;13.32;100.00;101846.41;6277847;28;20052;-79
2023/05/07 11:55:12;;;;;;;9.45;6.13;;;;;;;13.35;100.00;101855.94;6277594;28;20464;-78
2023/05/07 11:58:21;;;;;;;9.38;5.68;;;;;;;13.34;100.00;101849.81;6277685;28;20045;-80
2023/05/07 12:01:22;;;;;;;8.88;5.20;;;;;;;13.40;100.00;101864.53;6277894;28;20128;-81
2023/05/07 12:04:25;;;;;;;11.93;5.70;;;;;;;13.37;100.00;101857.59;6277765;28;20425;-78
2023/05/07 12:07:26;;;;;;;10.68;4.70;;;;;;;13.34;100.00;101846.31;6277333;28;20055;-78
2023/05/07 12:10:27;;;;;;;11.77;5.20;;;;;;;13.44;100.00;101851.09;6277328;28;20041;-78
2023/05/07 12:13:29;;;;;;;8.60;5.30;;;;;;;13.42;100.00;101858.22;6277463;28;20052;-78
2023/05/07 12:16:31;;;;;;;10.48;4.88;;;;;;;13.60;100.00;101848.56;6277338;28;20052;-80
2023/05/07 12:19:34;;;;;;;8.90;5.57;;;;;;;13.74;100.00;101847.03;6276857;28;20045;-78
2023/05/07 12:22:36;;;;;;;7.93;4.93;;;;;;;13.86;100.00;101852.59;6277299;28;20056;-80
2023/05/07 12:25:39;;;;;;;6.22;4.10;;;;;;;14.05;100.00;101843.75;6277096;28;20049;-81
2023/05/07 12:28:41;;;;;;;7.00;3.88;;;;;;;14.31;100.00;101839.78;6276757;28;20445;-80
2023/05/07 12:31:42;;;;;;;6.40;4.40;;;;;;;14.62;100.00;101837.25;6255981;28;20057;-81
2023/05/07 12:34:46;;;;;;;8.23;4.60;;;;;;;14.54;100.00;101836.81;6260190;28;20087;-81
2023/05/07 12:37:55;;;;;;;6.70;4.05;;;;;;;14.53;100.00;101832.44;6263193;28;20049;-81
2023/05/07 12:40:57;;;;;;;9.02;4.30;;;;;;;14.41;100.00;101833.94;6267765;28;20063;-81
2023/05/07 12:43:58;;;;;;;6.53;3.92;;;;;;;14.45;100.00;101845.22;6275387;28;20338;-81
2023/05/07 12:47:02;;;;;;;6.25;3.97;;;;;;;14.41;100.00;101830.44;6276396;28;20130;-79
2023/05/07 12:50:07;;;;;;;6.22;3.65;;;;;;;14.54;100.00;101836.81;6275993;28;20037;-81
2023/05/07 12:53:12;;;;;;;6.95;3.30;;;;;;;14.70;100.00;101842.16;6276528;28;20055;-77
2023/05/07 12:56:16;;;;;;;7.22;3.55;;;;;;;14.95;100.00;101839.06;6276354;28;20049;-78
2023/05/07 12:59:18;;;;;;;5.07;3.33;;;;;;;15.08;100.00;101852.44;6275849;28;20045;-77
2023/05/07 13:02:19;;;;;;;5.78;3.80;;;;;;;15.18;100.00;101845.75;6273285;28;20349;-78
2023/05/07 13:05:22;;;;;;;5.65;3.30;;;;;;;15.81;100.00;101842.22;6271791;28;20052;-81
2023/05/07 13:08:28;;;;;;;5.20;3.15;;;;;;;16.08;100.00;101834.44;6276046;28;20048;-82
2023/05/07 13:11:29;;;;;;;5.05;3.33;;;;;;;16.37;100.00;101838.88;6275798;28;20401;-82
2023/05/07 13:14:31;;;;;;;6.22;3.25;;;;;;;16.66;100.00;101834.44;6275938;28;20041;-83
2023/05/07 13:17:32;;;;;;;5.20;3.33;;;;;;;16.77;100.00;101832.97;6275614;28;20041;-83
2023/05/07 13:20:35;;;;;;;4.97;3.13;;;;;;;16.85;100.00;101834.22;6275759;28;20063;-82
2023/05/07 13:23:38;;;;;;;4.80;3.00;;;;;;;16.82;100.00;101834.38;6275684;28;20056;-82
2023/05/07 13:26:39;;;;;;;5.95;3.38;;;;;;;16.78;100.00;101824.91;6275470;28;20354;-82
2023/05/07 13:29:41;;;;;;;4.25;3.17;;;;;;;16.91;100.00;101825.84;6275479;28;20048;-83
2023/05/07 13:32:42;;;;;;;6.05;3.05;;;;;;;16.85;100.00;101830.66;6275626;28;20045;-83
2023/05/07 13:35:45;;;;;;;3.42;2.70;;;;;;;16.71;100.00;101836.81;6275432;28;20130;-83
2023/05/07 13:38:46;;;;;;;7.65;3.00;;;;;;;16.38;100.00;101827.31;6275087;28;20053;-82
2023/05/07 13:41:48;;;;;;;5.82;2.92;;;;;;;16.29;100.00;101835.81;6275055;28;20049;-82
2023/05/07 13:44:49;;;;;;;5.38;3.05;;;;;;;16.43;100.00;101830.53;6274562;28;20056;-82
2023/05/07 13:47:51;;;;;;;3.90;2.58;;;;;;;16.62;100.00;101824.97;6275154;28;20052;-83
2023/05/07 13:50:53;;;;;;;2.90;2.05;;;;;;;17.03;100.00;101818.03;6275123;28;20456;-83
2023/05/07 13:53:55;;;;;;;4.70;2.88;;;;;;;17.31;100.00;101820.66;6275339;28;20064;-83
2023/05/07 13:56:56;;;;;;;3.83;2.22;;;;;;;17.46;100.00;101811.69;6271042;28;20052;-83